Time;durP1;ratioP1;P1;durP2;ratioP2;P2;SDS_P1;SDS_P2;PMS_P1;PMS_P2;Temp;Humidity;BMP_temperature;BMP_pressure;BME280_temperature;BME280_humidity;BME280_pressure;Samples;Min_cycle;Max_cycle;Signal;HPM_P1;HPM_P2
2022/05/12 00:01:31;;;;;;;29.55;6.50;;;;;;;;;;6150269;23;20021;-57
2022/05/12 00:04:04;;;;;;;37.05;6.40;;;;;;;;;;6150318;23;20096;-55
2022/05/12 00:06:31;;;;;;;31.25;6.55;;;;;;;;;;6151027;23;20025;-56
2022/05/12 00:08:57;;;;;;;36.13;6.40;;;;;;;;;;6150995;23;20028;-58
2022/05/12 00:11:37;;;;;;;30.17;5.75;;;;;;;;;;6121559;23;20026;-59
2022/05/12 00:14:04;;;;;;;29.25;5.97;;;;;;;;;;6121041;23;20026;-60
2022/05/12 00:16:30;;;;;;;25.65;6.13;;;;;;;;;;6121102;23;20029;-59
2022/05/12 00:19:03;;;;;;;33.50;5.82;;;;;;;;;;6121445;23;20081;-59
2022/05/12 00:21:30;;;;;;;44.03;6.88;;;;;;;;;;6120915;23;20106;-59
2022/05/12 00:23:56;;;;;;;35.97;6.20;;;;;;;;;;6121034;23;20076;-59
2022/05/12 00:26:31;;;;;;;32.30;6.90;;;;;;;;;;6121059;23;20605;-59
2022/05/12 00:28:58;;;;;;;31.05;5.45;;;;;;;;;;6120987;23;20036;-59
2022/05/12 00:31:26;;;;;;;29.45;5.53;;;;;;;;;;6121431;23;20034;-51
2022/05/12 00:34:00;;;;;;;33.70;5.75;;;;;;;;;;6120553;23;20088;-60
2022/05/12 00:36:26;;;;;;;32.20;5.55;;;;;;;;;;6120987;23;20026;-60
2022/05/12 00:38:52;;;;;;;37.40;5.78;;;;;;;;;;6121519;23;20026;-60
2022/05/12 00:41:26;;;;;;;27.75;6.00;;;;;;;;;;6121119;23;20033;-59
2022/05/12 00:43:55;;;;;;;29.65;5.13;;;;;;;;;;6120579;23;20022;-60
2022/05/12 00:46:27;;;;;;;36.30;5.78;;;;;;;;;;6120635;23;20064;-59
2022/05/12 00:49:18;;;;;;;32.00;5.28;;;;;;;;;;6121409;23;20022;-53
2022/05/12 00:52:01;;;;;;;31.92;5.63;;;;;;;;;;6120845;23;20067;-60
2022/05/12 00:55:01;;;;;;;25.50;5.22;;;;;;;;;;6120976;23;20026;-60
2022/05/12 00:57:29;;;;;;;35.47;6.80;;;;;;;;;;6120191;23;20026;-60
2022/05/12 01:00:05;;;;;;;31.25;5.78;;;;;;;;;;6121067;23;20053;-60
2022/05/12 01:02:33;;;;;;;26.05;5.13;;;;;;;;;;6120828;23;20046;-60
2022/05/12 01:05:00;;;;;;;38.53;5.72;;;;;;;;;;6120450;23;20333;-60
2022/05/12 01:07:33;;;;;;;25.55;4.88;;;;;;;;;;6121182;23;20096;-65
2022/05/12 01:10:08;;;;;;;26.20;4.70;;;;;;;;;;6131354;23;20084;-55
2022/05/12 01:12:44;;;;;;;24.70;4.82;;;;;;;;;;6149790;23;20467;-60
2022/05/12 01:15:10;;;;;;;26.40;4.82;;;;;;;;;;6152333;23;20467;-60
2022/05/12 01:17:37;;;;;;;21.40;4.85;;;;;;;;;;6152380;23;20076;-60
2022/05/12 01:20:15;;;;;;;33.80;5.72;;;;;;;;;;6151466;23;20072;-60
2022/05/12 01:22:45;;;;;;;27.48;4.55;;;;;;;;;;6152091;23;20362;-60
2022/05/12 01:25:19;;;;;;;24.38;4.82;;;;;;;;;;6152376;23;20032;-60
2022/05/12 01:27:45;;;;;;;;;;;;;;;;;;6153124;23;20025;-59
2022/05/12 01:30:13;;;;;;;30.33;4.75;;;;;;;;;;6152895;23;19917;-55
2022/05/12 01:32:47;;;;;;;28.00;5.65;;;;;;;;;;6151496;23;20329;-56
2022/05/12 01:35:15;;;;;;;25.02;4.88;;;;;;;;;;6152373;23;20030;-57
2022/05/12 01:37:42;;;;;;;20.30;4.65;;;;;;;;;;6152111;23;20072;-56
2022/05/12 01:40:18;;;;;;;28.40;4.97;;;;;;;;;;6152891;23;20080;-55
2022/05/12 01:42:45;;;;;;;26.15;5.03;;;;;;;;;;6151613;23;20029;-57
2022/05/12 01:45:12;;;;;;;29.65;5.20;;;;;;;;;;6152231;23;20435;-56
2022/05/12 01:47:46;;;;;;;31.10;4.93;;;;;;;;;;6152332;23;20021;-53
2022/05/12 01:50:13;;;;;;;;;;;;;;;;;;6152246;23;20026;-53
2022/05/12 01:52:43;;;;;;;24.67;3.80;;;;;;;;;;6151658;23;19917;-55
2022/05/12 01:55:18;;;;;;;24.70;4.50;;;;;;;;;;6151983;23;20026;-56
2022/05/12 01:57:45;;;;;;;25.05;4.60;;;;;;;;;;6150635;23;20033;-56
2022/05/12 02:00:16;;;;;;;23.55;4.45;;;;;;;;;;6152286;23;20028;-57
2022/05/12 02:02:50;;;;;;;22.00;5.25;;;;;;;;;;6151540;23;20025;-55
2022/05/12 02:05:17;;;;;;;24.15;4.43;;;;;;;;;;6152126;23;20029;-59
2022/05/12 02:07:45;;;;;;;20.07;4.13;;;;;;;;;;6151329;23;20036;-55
2022/05/12 02:10:27;;;;;;;19.52;4.07;;;;;;;;;;6150090;23;20257;-52
2022/05/12 02:13:00;;;;;;;29.33;4.72;;;;;;;;;;6151225;23;20435;-51
2022/05/12 02:15:34;;;;;;;22.13;3.95;;;;;;;;;;6152113;23;20025;-53
2022/05/12 02:18:00;;;;;;;24.38;4.20;;;;;;;;;;6151147;23;20022;-51
2022/05/12 02:20:27;;;;;;;28.58;4.47;;;;;;;;;;6151326;23;20371;-52
2022/05/12 02:23:00;;;;;;;28.17;4.60;;;;;;;;;;6150481;23;20030;-51
2022/05/12 02:25:26;;;;;;;28.92;4.88;;;;;;;;;;6152054;23;20080;-51
2022/05/12 02:27:52;;;;;;;33.00;5.25;;;;;;;;;;6149866;23;20471;-56
2022/05/12 02:30:28;;;;;;;22.08;4.00;;;;;;;;;;6152004;23;20040;-56
2022/05/12 02:32:54;;;;;;;23.92;4.32;;;;;;;;;;6152415;23;20088;-55
2022/05/12 02:35:21;;;;;;;31.55;4.60;;;;;;;;;;6151616;23;20084;-55
2022/05/12 02:37:54;;;;;;;25.52;5.78;;;;;;;;;;6151858;23;20022;-56
2022/05/12 02:40:22;;;;;;;23.52;5.75;;;;;;;;;;6151415;23;20030;-56
2022/05/12 02:42:49;;;;;;;19.80;4.00;;;;;;;;;;6150409;23;20057;-62
2022/05/12 02:45:22;;;;;;;22.98;4.13;;;;;;;;;;6149352;23;20026;-56
2022/05/12 02:47:48;;;;;;;32.90;4.60;;;;;;;;;;6151042;23;20053;-51
2022/05/12 02:50:15;;;;;;;23.98;4.00;;;;;;;;;;6151745;23;20026;-51
2022/05/12 02:52:49;;;;;;;23.25;4.32;;;;;;;;;;6150918;23;20025;-53
2022/05/12 02:55:15;;;;;;;22.17;4.25;;;;;;;;;;6151937;23;20080;-53
2022/05/12 02:57:41;;;;;;;25.42;4.47;;;;;;;;;;6150241;23;20459;-52
2022/05/12 03:00:16;;;;;;;28.15;4.30;;;;;;;;;;6151898;23;20033;-51
2022/05/12 03:02:43;;;;;;;18.17;3.63;;;;;;;;;;6151132;23;20036;-63
2022/05/12 03:05:10;;;;;;;23.73;4.50;;;;;;;;;;6151937;23;20018;-51
2022/05/12 03:07:44;;;;;;;18.02;3.95;;;;;;;;;;6151501;23;20025;-51
2022/05/12 03:10:23;;;;;;;17.50;3.78;;;;;;;;;;6146413;23;20022;-52
2022/05/12 03:12:57;;;;;;;26.88;4.60;;;;;;;;;;6150941;23;20367;-50
2022/05/12 03:15:23;;;;;;;27.95;4.38;;;;;;;;;;6151736;23;20025;-51
2022/05/12 03:17:50;;;;;;;22.80;4.37;;;;;;;;;;6150996;23;20025;-53
2022/05/12 03:20:25;;;;;;;15.43;3.45;;;;;;;;;;6151014;23;20356;-52
2022/05/12 03:22:51;;;;;;;21.45;3.72;;;;;;;;;;6151275;23;20036;-62
2022/05/12 03:25:19;;;;;;;19.10;3.78;;;;;;;;;;6150936;23;20025;-60
2022/05/12 03:27:53;;;;;;;25.02;3.85;;;;;;;;;;6149371;23;20029;-60
2022/05/12 03:30:20;;;;;;;27.20;4.38;;;;;;;;;;6151588;23;20042;-60
2022/05/12 03:32:47;;;;;;;;;;;;;;;;;;6151414;23;20081;-60
2022/05/12 03:35:20;;;;;;;27.00;3.95;;;;;;;;;;6151417;23;19920;-60
2022/05/12 03:37:46;;;;;;;21.58;3.83;;;;;;;;;;6150570;23;20033;-60
2022/05/12 03:40:14;;;;;;;24.15;3.75;;;;;;;;;;6150787;23;20359;-59
2022/05/12 03:42:48;;;;;;;24.60;4.05;;;;;;;;;;6150475;23;20848;-50
2022/05/12 03:45:15;;;;;;;25.95;4.55;;;;;;;;;;6151325;23;20045;-60
2022/05/12 03:47:48;;;;;;;31.48;4.70;;;;;;;;;;6150936;23;20491;-60
2022/05/12 03:50:23;;;;;;;14.48;3.20;;;;;;;;;;6150943;23;20403;-60
2022/05/12 03:52:51;;;;;;;21.83;4.15;;;;;;;;;;6149732;23;20018;-60
2022/05/12 03:55:18;;;;;;;23.40;4.03;;;;;;;;;;6150566;23;20053;-60
2022/05/12 03:57:53;;;;;;;23.65;3.80;;;;;;;;;;6150032;23;20033;-60
2022/05/12 04:00:21;;;;;;;21.02;3.97;;;;;;;;;;6150979;23;20021;-62
2022/05/12 04:02:48;;;;;;;14.25;3.63;;;;;;;;;;6148980;23;20398;-62
2022/05/12 04:05:22;;;;;;;18.48;3.92;;;;;;;;;;6151348;23;20025;-63
2022/05/12 04:07:50;;;;;;;24.38;3.65;;;;;;;;;;6149642;23;20033;-63
2022/05/12 04:10:17;;;;;;;20.83;3.97;;;;;;;;;;6148967;23;20565;-62
2022/05/12 04:12:56;;;;;;;13.75;2.63;;;;;;;;;;6150290;23;20026;-62
2022/05/12 04:15:23;;;;;;;19.38;3.58;;;;;;;;;;6151055;23;20029;-61
2022/05/12 04:18:15;;;;;;;19.23;3.35;;;;;;;;;;6150287;23;20055;-60
2022/05/12 04:20:48;;;;;;;;;;;;;;;;;;6150723;23;20029;-54
2022/05/12 04:23:15;;;;;;;16.27;3.28;;;;;;;;;;6151220;23;19917;-60
2022/05/12 04:25:41;;;;;;;19.30;3.10;;;;;;;;;;6149336;23;20026;-59
2022/05/12 04:28:14;;;;;;;18.55;3.13;;;;;;;;;;6150917;23;20025;-60
2022/05/12 04:30:41;;;;;;;16.23;2.88;;;;;;;;;;6150733;23;20021;-59
2022/05/12 04:36:00;;;;;;;20.85;3.42;;;;;;;;;;6151011;23;20025;-59
2022/05/12 04:38:26;;;;;;;22.98;3.40;;;;;;;;;;6151276;23;20056;-60
2022/05/12 04:40:52;;;;;;;25.98;3.53;;;;;;;;;;6149044;23;20025;-64
2022/05/12 04:43:27;;;;;;;25.02;3.67;;;;;;;;;;6150988;23;20332;-64
2022/05/12 04:45:53;;;;;;;21.80;3.40;;;;;;;;;;6151415;23;20053;-64
2022/05/12 04:48:22;;;;;;;19.02;3.33;;;;;;;;;;6152415;23;20031;-63
2022/05/12 04:50:56;;;;;;;19.70;3.70;;;;;;;;;;6152659;23;20023;-64
2022/05/12 04:53:22;;;;;;;20.77;3.45;;;;;;;;;;6152065;23;20021;-64
2022/05/12 04:55:49;;;;;;;20.30;3.13;;;;;;;;;;6151139;23;20030;-53
2022/05/12 04:58:22;;;;;;;22.15;3.58;;;;;;;;;;6149610;23;20033;-61
2022/05/12 05:00:48;;;;;;;29.02;3.58;;;;;;;;;;6151845;23;20026;-58
2022/05/12 05:03:15;;;;;;;17.10;3.10;;;;;;;;;;6152446;23;20129;-57
2022/05/12 05:05:49;;;;;;;21.55;3.60;;;;;;;;;;6152879;23;20026;-58
2022/05/12 05:08:18;;;;;;;21.23;3.70;;;;;;;;;;6152105;23;20025;-58
2022/05/12 05:10:45;;;;;;;15.07;3.08;;;;;;;;;;6150698;23;20081;-58
2022/05/12 05:13:26;;;;;;;29.65;3.50;;;;;;;;;;6152610;23;20404;-58
2022/05/12 05:15:53;;;;;;;21.73;3.15;;;;;;;;;;6151895;23;20025;-62
2022/05/12 05:18:27;;;;;;;22.08;3.47;;;;;;;;;;6152645;23;20060;-59
2022/05/12 05:20:54;;;;;;;23.60;3.90;;;;;;;;;;6151236;23;20076;-52
2022/05/12 05:23:21;;;;;;;18.35;3.20;;;;;;;;;;6152417;23;20272;-52
2022/05/12 05:25:54;;;;;;;24.38;3.65;;;;;;;;;;6152807;23;20056;-49
2022/05/12 05:28:20;;;;;;;23.48;3.35;;;;;;;;;;6152764;23;20026;-49
2022/05/12 05:30:47;;;;;;;23.85;3.67;;;;;;;;;;6151649;23;20088;-51
2022/05/12 05:33:20;;;;;;;23.75;3.55;;;;;;;;;;6152227;23;20425;-51
2022/05/12 05:35:47;;;;;;;22.60;3.78;;;;;;;;;;6152141;23;20030;-57
2022/05/12 05:38:14;;;;;;;26.08;3.95;;;;;;;;;;6152121;23;20467;-51
2022/05/12 05:40:47;;;;;;;18.40;3.28;;;;;;;;;;6152134;23;20084;-47
2022/05/12 05:43:13;;;;;;;15.57;3.83;;;;;;;;;;6152028;23;20033;-48
2022/05/12 05:45:40;;;;;;;26.85;4.47;;;;;;;;;;6151931;23;20096;-51
2022/05/12 05:48:14;;;;;;;21.25;3.72;;;;;;;;;;6152375;23;20076;-48
2022/05/12 05:53:38;;;;;;;18.85;3.92;;;;;;;;;;6151835;23;20497;-58
2022/05/12 05:56:06;;;;;;;22.10;3.80;;;;;;;;;;6152781;23;20029;-56
2022/05/12 05:58:33;;;;;;;21.02;3.63;;;;;;;;;;6151251;23;20400;-49
2022/05/12 06:01:07;;;;;;;21.08;3.92;;;;;;;;;;6152120;23;20025;-52
2022/05/12 06:03:33;;;;;;;21.92;2.90;;;;;;;;;;6152187;23;20091;-48
2022/05/12 06:06:00;;;;;;;18.98;2.90;;;;;;;;;;6151369;23;20036;-48
2022/05/12 06:08:33;;;;;;;17.50;2.80;;;;;;;;;;6151414;23;20025;-51
2022/05/12 06:11:14;;;;;;;15.85;3.85;;;;;;;;;;6150702;23;20022;-47
2022/05/12 06:13:47;;;;;;;27.52;4.10;;;;;;;;;;6152289;23;20049;-57
2022/05/12 06:16:14;;;;;;;14.02;2.75;;;;;;;;;;6152134;23;20029;-56
2022/05/12 06:18:41;;;;;;;23.08;2.65;;;;;;;;;;6151767;23;20407;-58
2022/05/12 06:21:16;;;;;;;16.23;2.88;;;;;;;;;;6151973;23;20026;-55
2022/05/12 06:23:43;;;;;;;17.25;2.80;;;;;;;;;;6151821;23;20209;-57
2022/05/12 06:26:14;;;;;;;17.83;2.70;;;;;;;;;;6152186;23;20025;-56
2022/05/12 06:28:48;;;;;;;26.48;3.53;;;;;;;;;;6152170;23;20056;-56
2022/05/12 06:31:17;;;;;;;13.90;2.95;;;;;;;;;;6152058;23;20361;-61
2022/05/12 06:33:43;;;;;;;9.88;2.38;;;;;;;;;;6150828;23;20112;-58
2022/05/12 06:36:23;;;;;;;16.35;2.72;;;;;;;;;;6152342;23;20021;-57
2022/05/12 06:38:50;;;;;;;20.13;3.30;;;;;;;;;;6151979;23;20025;-57
2022/05/12 06:41:16;;;;;;;17.20;3.30;;;;;;;;;;6151810;23;20245;-57
2022/05/12 06:43:50;;;;;;;13.48;2.67;;;;;;;;;;6151450;23;20030;-57
2022/05/12 06:46:17;;;;;;;12.77;3.53;;;;;;;;;;6151501;23;20021;-56
2022/05/12 06:48:46;;;;;;;15.45;3.13;;;;;;;;;;6151155;23;20045;-57
2022/05/12 06:51:20;;;;;;;14.98;3.10;;;;;;;;;;6150874;23;20072;-55
2022/05/12 06:53:46;;;;;;;18.13;3.15;;;;;;;;;;6151234;23;20087;-53
2022/05/12 06:56:15;;;;;;;17.38;3.00;;;;;;;;;;6151946;23;20079;-56
2022/05/12 06:58:49;;;;;;;8.40;1.83;;;;;;;;;;6151385;23;20479;-57
2022/05/12 07:01:15;;;;;;;9.23;1.92;;;;;;;;;;6151432;23;20411;-56
2022/05/12 07:03:42;;;;;;;16.70;2.80;;;;;;;;;;6150828;23;20048;-58
2022/05/12 07:06:16;;;;;;;12.10;3.03;;;;;;;;;;6151646;23;20049;-57
2022/05/12 07:08:43;;;;;;;12.38;2.78;;;;;;;;;;6151554;23;20036;-54
2022/05/12 07:11:10;;;;;;;15.70;3.03;;;;;;;;;;6149075;23;20353;-50
2022/05/12 07:13:43;;;;;;;12.73;2.28;;;;;;;;;;6151277;23;20025;-49
2022/05/12 07:16:09;;;;;;;13.27;2.40;;;;;;;;;;6150758;23;20080;-48
2022/05/12 07:18:39;;;;;;;12.60;2.20;;;;;;;;;;6151605;23;20072;-51
2022/05/12 07:27:03;;;;;;;10.02;1.92;;;;;;;;;;6151492;23;20025;-48
2022/05/12 07:29:34;;;;;;;11.30;2.60;;;;;;;;;;6150883;23;20028;-58
2022/05/12 07:32:07;;;;;;;14.50;2.47;;;;;;;;;;6150756;23;20049;-57
2022/05/12 07:34:34;;;;;;;9.35;1.83;;;;;;;;;;6151245;23;20067;-57
2022/05/12 07:37:00;;;;;;;9.10;1.88;;;;;;;;;;6151623;23;20022;-56
2022/05/12 07:39:35;;;;;;;8.63;2.30;;;;;;;;;;6151233;23;20022;-57
2022/05/12 07:42:04;;;;;;;9.88;1.90;;;;;;;;;;6150802;23;20053;-57
2022/05/12 07:44:34;;;;;;;6.47;1.50;;;;;;;;;;6150446;23;20051;-57
2022/05/12 07:47:13;;;;;;;9.32;1.40;;;;;;;;;;6151107;23;20072;-56
2022/05/12 07:49:40;;;;;;;8.77;2.10;;;;;;;;;;6150817;23;20399;-53
2022/05/12 07:52:08;;;;;;;7.15;1.88;;;;;;;;;;6150952;23;20503;-54
2022/05/12 07:54:42;;;;;;;9.50;1.45;;;;;;;;;;6150804;23;20072;-54
2022/05/12 07:57:09;;;;;;;7.10;1.42;;;;;;;;;;6151432;23;20092;-56
2022/05/12 07:59:40;;;;;;;5.68;1.63;;;;;;;;;;6150290;23;20080;-56
2022/05/12 08:02:16;;;;;;;12.27;1.83;;;;;;;;;;6150655;23;20084;-57
2022/05/12 08:04:44;;;;;;;7.07;1.90;;;;;;;;;;6151251;23;20040;-55
2022/05/12 08:07:10;;;;;;;7.27;1.43;;;;;;;;;;6151379;23;20025;-58
2022/05/12 08:09:44;;;;;;;8.43;1.83;;;;;;;;;;6150543;23;20459;-58
2022/05/12 08:12:17;;;;;;;5.78;1.35;;;;;;;;;;6149057;23;20025;-57
2022/05/12 08:14:51;;;;;;;10.52;2.00;;;;;;;;;;6150578;23;20021;-56
2022/05/12 08:17:17;;;;;;;5.20;1.38;;;;;;;;;;6151482;23;20032;-56
2022/05/12 08:19:44;;;;;;;7.93;1.45;;;;;;;;;;6150839;23;20025;-56
2022/05/12 08:22:17;;;;;;;8.55;1.42;;;;;;;;;;6150756;23;20355;-55
2022/05/12 08:24:43;;;;;;;7.75;1.50;;;;;;;;;;6149772;23;20595;-55
2022/05/12 08:27:09;;;;;;;7.60;2.03;;;;;;;;;;6151025;23;20367;-62
2022/05/12 08:29:43;;;;;;;7.53;1.83;;;;;;;;;;6150523;23;20026;-62
2022/05/12 08:32:09;;;;;;;7.85;1.98;;;;;;;;;;6150688;23;20471;-62
2022/05/12 08:34:36;;;;;;;7.05;1.70;;;;;;;;;;6149744;23;20025;-62
2022/05/12 08:37:10;;;;;;;8.45;1.73;;;;;;;;;;6150894;23;20398;-62
2022/05/12 08:39:36;;;;;;;6.80;1.23;;;;;;;;;;6150717;23;20025;-62
2022/05/12 08:42:12;;;;;;;5.03;0.80;;;;;;;;;;6150818;23;20588;-61
2022/05/12 08:44:46;;;;;;;6.25;1.38;;;;;;;;;;6150560;23;20030;-58
2022/05/12 08:47:14;;;;;;;11.45;1.52;;;;;;;;;;6149430;23;20483;-55
2022/05/12 08:49:45;;;;;;;7.10;1.50;;;;;;;;;;6150467;23;20025;-46
2022/05/12 08:52:24;;;;;;;8.20;1.58;;;;;;;;;;6151384;23;20036;-45
2022/05/12 08:54:53;;;;;;;4.38;0.88;;;;;;;;;;6150299;23;20363;-46
2022/05/12 08:57:36;;;;;;;6.32;1.23;;;;;;;;;;6149607;23;20025;-49
2022/05/12 09:00:06;;;;;;;5.13;1.42;;;;;;;;;;6150054;23;20026;-49
2022/05/12 09:02:59;;;;;;;5.47;1.50;;;;;;;;;;6150756;23;20030;-49
2022/05/12 09:05:27;;;;;;;4.75;1.38;;;;;;;;;;6150943;23;20076;-70
2022/05/12 09:08:08;;;;;;;3.78;1.08;;;;;;;;;;6150956;23;20055;-55
2022/05/12 09:10:55;;;;;;;11.18;3.25;;;;;;;;;;6148048;23;20021;-54
2022/05/12 09:13:40;;;;;;;7.93;1.60;;;;;;;;;;6150585;23;20072;-56
2022/05/12 09:16:13;;;;;;;6.65;1.25;;;;;;;;;;6150675;23;20072;-56
2022/05/12 09:18:47;;;;;;;6.63;1.58;;;;;;;;;;6150030;23;20045;-55
2022/05/12 09:21:15;;;;;;;8.33;1.40;;;;;;;;;;6150385;23;20022;-54
2022/05/12 09:23:42;;;;;;;7.38;1.65;;;;;;;;;;6150296;23;20889;-56
2022/05/12 09:26:31;;;;;;;9.27;1.88;;;;;;;;;;6150366;23;20029;-70
2022/05/12 09:29:10;;;;;;;7.00;1.48;;;;;;;;;;6150165;23;20490;-70
2022/05/12 09:31:52;;;;;;;9.48;1.63;;;;;;;;;;6150112;23;20092;-69
2022/05/12 09:34:19;;;;;;;10.45;2.28;;;;;;;;;;6151579;23;20025;-69
2022/05/12 09:36:52;;;;;;;8.57;1.40;;;;;;;;;;6152534;23;20025;-69
2022/05/12 09:39:32;;;;;;;8.77;2.10;;;;;;;;;;6152116;23;20460;-70
2022/05/12 09:42:27;;;;;;;7.85;1.63;;;;;;;;;;6152130;23;20249;-70
2022/05/12 09:44:58;;;;;;;7.90;1.63;;;;;;;;;;6146487;23;20026;-51
2022/05/12 09:47:33;;;;;;;7.72;2.20;;;;;;;;;;6152521;23;20018;-55
2022/05/12 09:50:17;;;;;;;7.07;1.65;;;;;;;;;;6152540;23;20041;-54
2022/05/12 09:52:54;;;;;;;6.32;1.35;;;;;;;;;;6152078;23;20055;-55
2022/05/12 09:55:30;;;;;;;8.15;2.10;;;;;;;;;;6152371;23;20417;-52
2022/05/12 09:58:06;;;;;;;8.05;1.90;;;;;;;;;;6151968;23;20080;-56
2022/05/12 10:00:32;;;;;;;9.50;1.88;;;;;;;;;;6152005;23;20041;-55
2022/05/12 10:08:59;;;;;;;7.78;2.05;;;;;;;;;;6152255;23;20028;-55
2022/05/12 10:12:00;;;;;;;5.70;1.60;;;;;;;;;;6147913;23;20355;-53
2022/05/12 10:14:52;;;;;;;9.55;2.05;;;;;;;;;;6152070;23;20025;-54
2022/05/12 10:17:30;;;;;;;7.85;1.88;;;;;;;;;;6151877;23;20059;-54
2022/05/12 10:19:58;;;;;;;13.15;2.17;;;;;;;;;;6152454;23;20028;-56
2022/05/12 10:22:44;;;;;;;6.95;1.70;;;;;;;;;;6151567;23;20044;-62
2022/05/12 10:25:56;;;;;;;8.10;1.95;;;;;;;;;;6151665;23;20026;-58
2022/05/12 10:28:32;;;;;;;13.88;2.30;;;;;;;;;;6151436;23;20040;-58
2022/05/12 10:31:26;;;;;;;16.48;3.08;;;;;;;;;;6152151;23;20029;-57
2022/05/12 10:33:57;;;;;;;10.68;2.25;;;;;;;;;;6145916;23;20096;-57
2022/05/12 10:37:09;;;;;;;12.27;2.72;;;;;;;;;;6150521;23;20022;-58
2022/05/12 10:39:38;;;;;;;12.63;2.95;;;;;;;;;;6119089;23;20022;-55
2022/05/12 10:42:23;;;;;;;14.95;2.90;;;;;;;;;;6119409;23;20030;-62
2022/05/12 10:45:00;;;;;;;13.57;2.38;;;;;;;;;;6138321;23;20029;-72
2022/05/12 10:47:34;;;;;;;14.32;3.10;;;;;;;;;;6151564;23;20027;-72
2022/05/12 10:50:19;;;;;;;11.55;2.78;;;;;;;;;;6152068;23;20018;-73
2022/05/12 10:53:11;;;;;;;10.70;2.20;;;;;;;;;;6151882;23;20026;-74
2022/05/12 10:55:38;;;;;;;15.65;2.90;;;;;;;;;;6151737;23;20549;-73
2022/05/12 10:58:32;;;;;;;11.32;2.60;;;;;;;;;;6150900;23;20021;-72
2022/05/12 11:01:19;;;;;;;17.02;3.15;;;;;;;;;;6151826;23;20531;-50
2022/05/12 11:03:54;;;;;;;17.95;3.00;;;;;;;;;;6151604;23;20107;-73
2022/05/12 11:06:25;;;;;;;12.77;2.58;;;;;;;;;;6152146;23;20017;-72
2022/05/12 11:08:56;;;;;;;13.43;2.85;;;;;;;;;;6150921;23;20029;-73
2022/05/12 11:11:29;;;;;;;;;;;;;;;;;;6150394;23;20088;-73
2022/05/12 11:14:17;;;;;;;16.42;3.00;;;;;;;;;;6150763;23;19920;-73
2022/05/12 11:16:53;;;;;;;17.13;2.90;;;;;;;;;;6151354;23;20068;-60
2022/05/12 11:19:21;;;;;;;8.80;2.30;;;;;;;;;;6151901;23;20026;-60
2022/05/12 11:22:02;;;;;;;16.48;2.92;;;;;;;;;;6151201;23;20029;-57
2022/05/12 11:24:59;;;;;;;9.90;2.97;;;;;;;;;;6151216;23;20026;-56
2022/05/12 11:27:31;;;;;;;14.65;3.30;;;;;;;;;;6151147;23;20026;-55
2022/05/12 11:30:23;;;;;;;17.95;2.90;;;;;;;;;;6151627;23;20025;-58
2022/05/12 11:32:50;;;;;;;12.98;2.75;;;;;;;;;;6150240;23;20029;-57
2022/05/12 11:35:29;;;;;;;14.57;3.00;;;;;;;;;;6150885;23;20064;-56
2022/05/12 11:38:06;;;;;;;16.92;2.85;;;;;;;;;;6151642;23;20264;-60
2022/05/12 11:40:48;;;;;;;20.15;3.92;;;;;;;;;;6151540;23;20025;-61
2022/05/12 11:46:45;;;;;;;15.82;2.60;;;;;;;;;;6151072;23;20048;-61
2022/05/12 11:49:14;;;;;;;18.10;3.10;;;;;;;;;;6150417;23;20072;-61
2022/05/12 11:51:52;;;;;;;20.95;3.13;;;;;;;;;;6151047;23;20029;-61
2022/05/12 11:54:19;;;;;;;13.07;3.10;;;;;;;;;;6150839;23;20021;-61
2022/05/12 11:56:49;;;;;;;13.60;2.60;;;;;;;;;;6150888;23;20032;-61
2022/05/12 11:59:33;;;;;;;15.55;3.22;;;;;;;;;;6150741;23;20080;-61
2022/05/12 12:02:01;;;;;;;12.70;2.83;;;;;;;;;;6151410;23;20068;-61
2022/05/12 12:04:39;;;;;;;15.40;3.03;;;;;;;;;;6150412;23;20021;-62
2022/05/12 12:07:06;;;;;;;11.73;2.70;;;;;;;;;;6151381;23;20025;-61
2022/05/12 12:09:36;;;;;;;9.98;2.22;;;;;;;;;;6150616;23;20029;-61
2022/05/12 12:12:17;;;;;;;12.20;2.50;;;;;;;;;;6148711;23;20026;-61
2022/05/12 12:14:59;;;;;;;11.55;2.47;;;;;;;;;;6151196;23;20056;-60
2022/05/12 12:17:41;;;;;;;16.42;3.15;;;;;;;;;;6150182;23;20473;-58
2022/05/12 12:20:10;;;;;;;13.02;2.40;;;;;;;;;;6150842;23;20025;-51
2022/05/12 12:22:51;;;;;;;11.77;2.38;;;;;;;;;;6150697;23;20030;-51
2022/05/12 12:25:29;;;;;;;12.30;3.20;;;;;;;;;;6151214;23;20363;-48
2022/05/12 12:28:09;;;;;;;16.65;3.50;;;;;;;;;;6151037;23;20026;-49
2022/05/12 12:30:37;;;;;;;16.77;3.20;;;;;;;;;;6149449;23;20471;-49
2022/05/12 12:33:16;;;;;;;14.65;3.67;;;;;;;;;;6151555;23;20100;-58
2022/05/12 12:35:48;;;;;;;13.43;2.85;;;;;;;;;;6150617;23;20022;-58
2022/05/12 12:38:39;;;;;;;14.90;3.13;;;;;;;;;;6150197;23;20029;-57
2022/05/12 12:41:06;;;;;;;14.48;3.00;;;;;;;;;;6150541;23;20475;-57
2022/05/12 12:43:41;;;;;;;13.82;2.58;;;;;;;;;;6150412;23;20036;-58
2022/05/12 12:46:19;;;;;;;13.60;2.35;;;;;;;;;;6150272;23;20337;-58
2022/05/12 12:48:57;;;;;;;16.77;3.80;;;;;;;;;;6150947;23;20028;-58
2022/05/12 12:51:31;;;;;;;11.80;2.67;;;;;;;;;;6151074;23;20076;-58
2022/05/12 12:57:25;;;;;;;17.05;3.33;;;;;;;;;;6150894;23;20025;-55
2022/05/12 12:59:59;;;;;;;18.35;3.50;;;;;;;;;;6151136;23;20352;-52
2022/05/12 13:02:40;;;;;;;18.13;3.45;;;;;;;;;;6150211;23;20021;-55
2022/05/12 13:05:18;;;;;;;12.32;2.90;;;;;;;;;;6150822;23;20026;-54
2022/05/12 13:07:52;;;;;;;14.15;3.30;;;;;;;;;;6151403;23;20022;-53
2022/05/12 13:10:26;;;;;;;12.32;2.85;;;;;;;;;;6152265;23;20025;-53
2022/05/12 13:13:02;;;;;;;15.03;3.73;;;;;;;;;;6147660;23;20029;-58
2022/05/12 13:15:39;;;;;;;15.65;2.97;;;;;;;;;;6152293;23;20307;-51
2022/05/12 13:18:07;;;;;;;12.63;2.30;;;;;;;;;;6151861;23;20383;-47
2022/05/12 13:20:53;;;;;;;16.42;2.47;;;;;;;;;;6151007;23;20025;-50
2022/05/12 13:23:40;;;;;;;13.07;2.28;;;;;;;;;;6152276;23;20290;-51
2022/05/12 13:26:07;;;;;;;15.65;2.35;;;;;;;;;;6152608;23;20030;-52
2022/05/12 13:28:42;;;;;;;11.38;2.30;;;;;;;;;;6151578;23;20076;-48
2022/05/12 13:31:13;;;;;;;11.20;2.60;;;;;;;;;;6152486;23;20517;-62
2022/05/12 13:33:54;;;;;;;11.82;2.55;;;;;;;;;;6152035;23;20026;-74
2022/05/12 13:36:23;;;;;;;12.05;2.13;;;;;;;;;;6151259;23;20472;-53
2022/05/12 13:38:56;;;;;;;12.20;2.58;;;;;;;;;;6152573;23;20021;-54
2022/05/12 13:41:35;;;;;;;18.98;3.10;;;;;;;;;;6151892;23;20029;-52
2022/05/12 13:44:11;;;;;;;12.02;2.45;;;;;;;;;;6152068;23;20530;-54
2022/05/12 13:46:38;;;;;;;16.70;2.75;;;;;;;;;;6152226;23;20053;-53
2022/05/12 13:49:06;;;;;;;15.80;2.97;;;;;;;;;;6151629;23;20025;-55
2022/05/12 13:51:52;;;;;;;10.13;2.65;;;;;;;;;;6151917;23;20076;-60
2022/05/12 13:54:34;;;;;;;12.48;2.40;;;;;;;;;;6152099;23;20061;-51
2022/05/12 13:57:19;;;;;;;9.45;2.22;;;;;;;;;;6152382;23;20033;-51
2022/05/12 13:59:56;;;;;;;11.65;2.42;;;;;;;;;;6151175;23;20442;-53
2022/05/12 14:02:33;;;;;;;10.57;2.78;;;;;;;;;;6152372;23;20087;-53
2022/05/12 14:05:22;;;;;;;11.93;2.30;;;;;;;;;;6150850;23;20024;-55
2022/05/12 14:08:08;;;;;;;10.38;2.20;;;;;;;;;;6149385;23;20403;-53
2022/05/12 14:10:35;;;;;;;16.92;2.38;;;;;;;;;;6152180;23;20030;-59
2022/05/12 14:19:34;;;;;;;8.73;1.92;;;;;;;;;;6150751;23;20021;-54
2022/05/12 14:22:03;;;;;;;12.93;2.35;;;;;;;;;;6150445;23;20360;-49
2022/05/12 14:24:39;;;;;;;8.77;1.55;;;;;;;;;;6150115;23;20025;-51
2022/05/12 14:27:06;;;;;;;11.07;1.50;;;;;;;;;;6151090;23;20511;-52
2022/05/12 14:29:33;;;;;;;6.55;2.00;;;;;;;;;;6149966;23;20026;-60
2022/05/12 14:32:09;;;;;;;9.60;1.80;;;;;;;;;;6150259;23;20407;-74
2022/05/12 14:34:36;;;;;;;9.43;2.05;;;;;;;;;;6150481;23;20406;-73
2022/05/12 14:37:02;;;;;;;8.52;2.63;;;;;;;;;;6149139;23;20028;-73
2022/05/12 14:39:36;;;;;;;7.50;1.80;;;;;;;;;;6150536;23;20681;-73
2022/05/12 14:42:03;;;;;;;10.23;1.67;;;;;;;;;;6150311;23;20474;-73
2022/05/12 14:44:29;;;;;;;8.10;1.90;;;;;;;;;;6150939;23;20072;-73
2022/05/12 14:47:07;;;;;;;5.28;1.63;;;;;;;;;;6150870;23;20080;-51
2022/05/12 14:49:35;;;;;;;10.70;1.88;;;;;;;;;;6150121;23;20021;-61
2022/05/12 14:52:03;;;;;;;10.00;1.90;;;;;;;;;;6149789;23;20411;-60
2022/05/12 14:54:36;;;;;;;12.82;2.45;;;;;;;;;;6151243;23;20021;-60
2022/05/12 14:57:03;;;;;;;10.18;1.95;;;;;;;;;;6151783;23;20026;-60
2022/05/12 14:59:29;;;;;;;14.68;2.60;;;;;;;;;;6151085;23;20076;-61
2022/05/12 15:02:03;;;;;;;12.13;2.47;;;;;;;;;;6151184;23;20021;-60
2022/05/12 15:04:31;;;;;;;8.75;2.30;;;;;;;;;;6151136;23;20403;-61
2022/05/12 15:06:58;;;;;;;13.05;2.05;;;;;;;;;;6151357;23;20021;-60
2022/05/12 15:09:32;;;;;;;9.90;2.50;;;;;;;;;;6150371;23;20371;-59
2022/05/12 15:12:11;;;;;;;8.40;2.10;;;;;;;;;;6147746;23;20072;-59
2022/05/12 15:14:45;;;;;;;15.38;2.00;;;;;;;;;;6151810;23;20026;-58
2022/05/12 15:17:14;;;;;;;9.45;2.63;;;;;;;;;;6151573;23;20022;-59
2022/05/12 15:19:40;;;;;;;9.48;2.40;;;;;;;;;;6150116;23;20022;-58
2022/05/12 15:22:14;;;;;;;9.32;1.73;;;;;;;;;;6150477;23;20064;-58
2022/05/12 15:24:41;;;;;;;9.97;2.17;;;;;;;;;;6149838;23;20084;-51
2022/05/12 15:27:08;;;;;;;9.90;1.92;;;;;;;;;;6150855;23;20029;-50
2022/05/12 15:29:45;;;;;;;12.88;2.33;;;;;;;;;;6150926;23;20084;-59
2022/05/12 15:32:12;;;;;;;9.98;1.85;;;;;;;;;;6151296;23;20064;-58
2022/05/12 15:34:39;;;;;;;8.43;1.80;;;;;;;;;;6150535;23;20029;-58
2022/05/12 15:37:12;;;;;;;11.93;2.22;;;;;;;;;;6150733;23;20506;-58
2022/05/12 15:39:39;;;;;;;9.98;1.40;;;;;;;;;;6150663;23;20028;-59